Anton, CO

5:10 AM MST on January 31, 2015 (GMT -0700)
Cope, Colorado | Change Station
CLOSE
Current Station
Personal Weather Station
Location: Cope, CO
Elevation: 4423 ft
Nearby Weather Stations

Elev 4423 ft 39.67 °N, 102.85 °W | Updated 5 minutes ago

Overcast
Overcast
32.2 °F
Feels Like 29 °F
N
3.7
Wind Variable Wind from NNW

Today
High -- | Low -- °F
--% Chance of Precip.
Yesterday
High -- | Low -- °F
Precip. -- in
7:02 AM 5:11 PM
Waxing Gibbous, 89% visible
Pressure 29.94 in
Visibility 8.0 miles
Clouds Overcast 400 ft
Windchill 29 °F
Dew Point 31 °F
Humidity 95%
Rainfall 0.00 in
Snow Depth Not available.
UV 0 out of 12
Pollen .70 out of 12
Air Quality Not available.
Flu Activity Not available.
METAR KAKO 311153Z AUTO 34005KT 8SM OVC004 M01/M02 A2990 RMK AO2 SLP138 T10111017 10006 21011 58015

More Conditions Fewer Conditions

Pressure 29.94 in
Visibility 8.0 miles
Clouds Overcast 400 ft
Windchill 29 °F
Dew Point 31 °F
Humidity 95%
Rainfall 0.00 in
Snow Depth Not available.
UV 0 out of 12
Pollen .70 out of 12
Air Quality Not available.
Flu Activity Not available.
METAR KAKO 311153Z AUTO 34005KT 8SM OVC004 M01/M02 A2990 RMK AO2 SLP138 T10111017 10006 21011 58015

More Conditions Fewer Conditions

10-Day Weather Forecast

Almanac

Astronomy

Jan. 31, 2015 Rise Set
Actual Time
Civil Twilight
Nautical Twilight
Astronomical Twilight
Moon
Length of Visible Light
Length of Day
Tomorrow will be .
, % of the Moon is Illuminated

Today's Extremes

State Highs State Lows

Community

WunderPhotos

Upload Photos

1,792,036 photos uploaded!

WunderBlogs® & News

Nearby

Air Quality

  Air Quality AQ Index Pollutant
Not available.

Snow Depth

Station Depth Elevation

Earthquake Activity

City Distance Mag. Time & Date
Minimum magnitude displayed is 2.5.

Coastal Water Temperatures

Place Temperature

Nearby Weather Stations